createdAt,value
2019-02-06T00:03:24.078Z,21.77
2019-02-06T00:08:30.661Z,22.43
2019-02-06T00:13:37.447Z,20.93
2019-02-06T00:18:43.650Z,22.17
2019-02-06T00:24:11.458Z,21.67
2019-02-06T00:29:18.121Z,21.83
2019-02-06T00:34:25.267Z,22.40
2019-02-06T00:39:33.177Z,23.40
2019-02-06T00:44:39.426Z,22.70
2019-02-06T00:49:45.682Z,21.63
2019-02-06T00:54:53.620Z,21.03
2019-02-06T01:00:00.086Z,22.77
2019-02-06T01:05:11.265Z,21.37
2019-02-06T01:10:22.673Z,22.70
2019-02-06T01:15:28.120Z,21.30
2019-02-06T01:20:35.167Z,21.60
2019-02-06T01:25:42.561Z,22.00
2019-02-06T01:30:54.784Z,20.67
2019-02-06T01:36:00.939Z,21.70
2019-02-06T01:41:07.273Z,21.63
2019-02-06T01:46:14.133Z,22.47
2019-02-06T01:51:20.412Z,22.07
2019-02-06T01:56:25.970Z,21.30
2019-02-06T02:01:32.577Z,22.03
2019-02-06T02:06:40.428Z,21.67
2019-02-06T02:11:46.798Z,23.63
2019-02-06T02:16:53.656Z,21.47
2019-02-06T02:22:00.280Z,21.33
2019-02-06T02:27:06.737Z,21.83
2019-02-06T02:32:13.420Z,21.70
2019-02-06T02:37:41.552Z,22.27
2019-02-06T02:42:48.388Z,21.60
2019-02-06T02:47:54.945Z,19.93
2019-02-06T02:53:01.442Z,21.93
2019-02-06T02:58:09.614Z,23.37
2019-02-06T03:03:17.647Z,22.53
2019-02-06T03:08:23.301Z,21.93
2019-02-06T03:13:28.893Z,21.40
2019-02-06T03:18:36.729Z,20.80
2019-02-06T03:23:43.701Z,21.80
2019-02-06T03:28:50.258Z,17.87
2019-02-06T03:33:56.873Z,20.80
2019-02-06T03:39:04.893Z,19.93
2019-02-06T03:44:11.154Z,18.30
2019-02-06T03:49:17.437Z,20.23
2019-02-06T03:54:23.070Z,20.47
2019-02-06T03:59:30.520Z,19.63
2019-02-06T04:04:38.574Z,18.67
2019-02-06T04:09:45.527Z,20.00
2019-02-06T04:14:52.215Z,20.27
2019-02-06T04:19:58.765Z,18.77
2019-02-06T04:25:25.984Z,19.57
2019-02-06T04:30:31.807Z,18.47
2019-02-06T04:35:38.180Z,19.03
2019-02-06T04:40:44.406Z,19.43
2019-02-06T04:45:51.893Z,19.13
2019-02-06T04:50:59.534Z,17.57
2019-02-06T04:56:07.137Z,18.10
2019-02-06T05:01:13.707Z,16.87
2019-02-06T05:06:20.371Z,17.27
2019-02-06T05:11:25.982Z,17.60
2019-02-06T05:16:33.103Z,16.00
2019-02-06T05:21:39.825Z,17.37
2019-02-06T05:26:46.472Z,15.50
2019-02-06T05:31:52.940Z,13.20
2019-02-06T05:36:59.394Z,15.10
2019-02-06T05:42:06.200Z,13.30
2019-02-06T05:47:14.386Z,13.90
2019-02-06T05:52:20.782Z,13.40
2019-02-06T05:57:26.426Z,13.93
2019-02-06T06:02:32.927Z,12.63
2019-02-06T06:07:45.176Z,12.83
2019-02-06T06:12:48.391Z,13.23
2019-02-06T06:17:55.742Z,13.70
2019-02-06T06:23:02.464Z,13.57
2019-02-06T06:28:10.855Z,15.17
2019-02-06T06:33:17.483Z,14.23
2019-02-06T06:38:23.115Z,13.97
2019-02-06T06:43:30.369Z,14.93
2019-02-06T06:48:38.428Z,14.37
2019-02-06T06:53:44.765Z,15.93
2019-02-06T06:58:51.024Z,15.20
2019-02-06T07:03:57.623Z,14.73
2019-02-06T07:09:24.390Z,15.67
2019-02-06T07:14:31.683Z,14.13
2019-02-06T07:19:59.922Z,12.87
2019-02-06T07:25:08.551Z,11.93
2019-02-06T07:30:25.310Z,11.93
2019-02-06T07:35:31.826Z,11.73
2019-02-06T07:40:38.242Z,11.60
2019-02-06T07:45:44.229Z,12.77
2019-02-06T07:50:50.390Z,12.00
2019-02-06T07:55:57.097Z,11.27
2019-02-06T08:01:05.636Z,12.40
2019-02-06T08:06:12.165Z,10.37
2019-02-06T08:11:18.710Z,11.10
2019-02-06T08:16:24.380Z,12.00
2019-02-06T08:21:31.048Z,11.70
2019-02-06T08:26:37.761Z,10.93
2019-02-06T08:31:44.311Z,8.60
2019-02-06T08:37:02.688Z,9.77
2019-02-06T08:42:09.300Z,9.50
2019-02-06T08:47:17.090Z,9.47
2019-02-06T08:52:22.709Z,9.53
2019-02-06T08:57:29.408Z,14.67
2019-02-06T09:02:36.068Z,9.00
2019-02-06T09:07:43.698Z,7.97
2019-02-06T09:12:50.299Z,9.43
2019-02-06T09:17:57.937Z,8.63
2019-02-06T09:23:04.617Z,9.63
2019-02-06T09:28:11.216Z,8.70
2019-02-06T09:33:17.990Z,8.53
2019-02-06T09:38:23.629Z,9.73
2019-02-06T09:43:31.177Z,8.63
2019-02-06T09:48:37.358Z,9.23
2019-02-06T09:53:43.683Z,8.83
2019-02-06T09:58:50.320Z,8.57
2019-02-06T10:03:56.506Z,7.40
2019-02-06T10:09:02.666Z,6.83
2019-02-06T10:14:13.268Z,6.57
2019-02-06T10:19:19.818Z,7.90
2019-02-06T10:24:25.537Z,8.60
2019-02-06T10:29:32.095Z,6.40
2019-02-06T10:34:41.078Z,6.63
2019-02-06T10:39:48.428Z,5.27
2019-02-06T10:44:55.312Z,5.67
2019-02-06T10:50:02.173Z,6.03
2019-02-06T10:55:09.655Z,5.33
2019-02-06T11:00:29.987Z,5.90
2019-02-06T11:05:38.155Z,5.80
2019-02-06T11:10:44.877Z,5.17
2019-02-06T11:15:51.984Z,5.17
2019-02-06T11:21:00.001Z,5.60
2019-02-06T11:26:06.528Z,5.40
2019-02-06T11:31:13.420Z,5.50
2019-02-06T11:36:24.269Z,5.00
2019-02-06T11:41:27.429Z,5.83
2019-02-06T11:46:34.593Z,4.97
2019-02-06T11:51:41.095Z,4.60
2019-02-06T11:56:47.806Z,4.20
2019-02-06T12:01:54.472Z,4.40
2019-02-06T12:07:01.298Z,4.00
2019-02-06T12:12:07.470Z,4.13
2019-02-06T12:17:14.118Z,3.80
2019-02-06T12:22:21.709Z,3.77
2019-02-06T12:27:27.357Z,4.47
2019-02-06T12:32:33.592Z,4.50
2019-02-06T12:37:40.301Z,4.13
2019-02-06T12:42:46.394Z,3.90
2019-02-06T12:47:52.823Z,4.80
2019-02-06T12:52:59.514Z,5.07
2019-02-06T12:58:07.311Z,5.23
2019-02-06T13:03:14.086Z,5.67
2019-02-06T13:08:20.637Z,5.37
2019-02-06T13:13:26.290Z,5.33
2019-02-06T13:18:32.019Z,6.23
2019-02-06T13:23:38.117Z,6.73
2019-02-06T13:28:44.301Z,6.97
2019-02-06T13:33:50.376Z,7.13
2019-02-06T13:38:57.682Z,7.23
2019-02-06T13:44:07.420Z,8.23
2019-02-06T13:49:14.255Z,8.10
2019-02-06T13:54:20.863Z,8.07
2019-02-06T13:59:28.062Z,8.80
2019-02-06T14:04:34.723Z,8.63
2019-02-06T14:09:42.260Z,9.00
2019-02-06T14:14:48.711Z,10.20
2019-02-06T14:19:57.025Z,10.20
2019-02-06T14:25:03.504Z,10.03
2019-02-06T14:30:47.118Z,10.17
2019-02-06T14:36:21.849Z,9.43
2019-02-06T14:41:41.078Z,9.20
2019-02-06T14:47:09.713Z,10.53
2019-02-06T14:52:51.312Z,10.20
2019-02-06T14:58:35.157Z,10.50
2019-02-06T15:04:03.255Z,11.00
2019-02-06T15:09:22.106Z,10.47
2019-02-06T15:15:11.960Z,11.70
2019-02-06T15:20:56.670Z,11.13
2019-02-06T15:26:13.133Z,11.30
2019-02-06T15:31:45.141Z,11.13
2019-02-06T15:37:31.670Z,12.17
2019-02-06T15:42:57.913Z,12.23
2019-02-06T15:48:16.876Z,12.73
2019-02-06T15:53:35.930Z,11.63
2019-02-06T15:59:10.220Z,11.67
2019-02-06T16:04:43.846Z,11.17
2019-02-06T16:10:26.464Z,11.77
2019-02-06T16:15:49.258Z,12.13
2019-02-06T16:21:20.689Z,12.80
2019-02-06T16:27:09.267Z,11.87
2019-02-06T16:32:26.082Z,11.90
2019-02-06T16:38:05.485Z,12.00
2019-02-06T16:43:31.136Z,12.47
2019-02-06T16:48:51.158Z,12.43
2019-02-06T16:54:24.550Z,11.43
2019-02-06T17:00:03.960Z,11.47
2019-02-06T17:05:30.742Z,10.67
2019-02-06T17:10:59.163Z,11.70
2019-02-06T17:16:19.202Z,12.90
2019-02-06T17:21:45.393Z,11.70
2019-02-06T17:27:35.959Z,10.90
2019-02-06T17:32:58.259Z,10.47
2019-02-06T17:38:38.507Z,10.47
2019-02-06T17:44:07.866Z,11.57
2019-02-06T17:49:43.555Z,10.37
2019-02-06T17:55:15.772Z,11.03
2019-02-06T18:00:47.847Z,10.73
2019-02-06T18:05:54.549Z,12.57
2019-02-06T18:11:01.485Z,11.93
2019-02-06T18:16:08.220Z,12.20
2019-02-06T18:21:14.887Z,11.43
2019-02-06T18:26:21.774Z,11.80
2019-02-06T18:31:28.866Z,12.27
2019-02-06T18:36:35.763Z,12.17
2019-02-06T18:41:42.384Z,10.67
2019-02-06T18:46:49.482Z,11.20
2019-02-06T18:51:56.314Z,10.50
2019-02-06T18:57:03.281Z,10.97
2019-02-06T19:02:10.337Z,11.53
2019-02-06T19:07:16.922Z,11.07
2019-02-06T19:12:22.734Z,12.73
2019-02-06T19:17:28.439Z,11.77
2019-02-06T19:22:35.248Z,13.03
2019-02-06T19:27:43.597Z,13.57
2019-02-06T19:32:51.952Z,12.50
2019-02-06T19:37:58.653Z,13.10
2019-02-06T19:43:05.406Z,12.07
2019-02-06T19:48:16.232Z,11.10
2019-02-06T19:53:20.735Z,11.53
2019-02-06T19:58:26.593Z,11.43
2019-02-06T20:03:33.315Z,10.57
2019-02-06T20:08:39.890Z,10.80
2019-02-06T20:13:46.565Z,11.13
2019-02-06T20:18:53.376Z,11.73
2019-02-06T20:23:59.835Z,12.20
2019-02-06T20:29:06.200Z,12.57
2019-02-06T20:34:13.626Z,13.77
2019-02-06T20:39:19.928Z,13.23
2019-02-06T20:44:25.682Z,13.73
2019-02-06T20:49:33.991Z,13.17
2019-02-06T20:54:40.699Z,14.37
2019-02-06T20:59:49.029Z,14.13
2019-02-06T21:04:55.974Z,14.00
2019-02-06T21:10:02.888Z,13.87
2019-02-06T21:15:32.944Z,13.70
2019-02-06T21:20:41.169Z,14.07
2019-02-06T21:25:47.751Z,12.13
2019-02-06T21:30:54.804Z,12.00
2019-02-06T21:36:01.528Z,14.00
2019-02-06T21:41:08.162Z,14.60
2019-02-06T21:46:14.795Z,13.80
2019-02-06T21:51:21.464Z,13.07
2019-02-06T21:56:27.172Z,14.07
2019-02-06T22:01:33.589Z,13.57
2019-02-06T22:06:39.991Z,14.53
2019-02-06T22:11:46.379Z,13.70
2019-02-06T22:16:52.781Z,14.63
2019-02-06T22:21:59.835Z,13.97
2019-02-06T22:27:06.595Z,14.13
2019-02-06T22:32:13.500Z,13.13
2019-02-06T22:37:20.393Z,12.40
2019-02-06T22:42:26.134Z,12.63
2019-02-06T22:47:32.801Z,12.30
2019-02-06T22:52:39.514Z,12.60
2019-02-06T22:57:46.058Z,12.77
2019-02-06T23:03:04.873Z,15.97
2019-02-06T23:08:11.571Z,20.47
2019-02-06T23:13:17.726Z,20.37
2019-02-06T23:18:23.494Z,19.37
2019-02-06T23:23:30.746Z,18.47
2019-02-06T23:28:36.927Z,17.17
2019-02-06T23:33:43.383Z,17.17
2019-02-06T23:38:50.171Z,18.53
2019-02-06T23:43:56.774Z,16.57
2019-02-06T23:49:03.552Z,14.43
2019-02-06T23:54:10.150Z,13.80
2019-02-06T23:59:17.551Z,14.73
